createdAt,value
2016-02-02T00:00:46.235Z,19.07
2016-02-02T00:01:46.316Z,18.96
2016-02-02T00:02:46.350Z,19.04
2016-02-02T00:03:46.400Z,19.11
2016-02-02T00:04:46.481Z,19.09
2016-02-02T00:05:46.531Z,19.09
2016-02-02T00:06:46.565Z,19.04
2016-02-02T00:07:46.631Z,19.14
2016-02-02T00:08:46.695Z,19.07
2016-02-02T00:09:46.745Z,19.08
2016-02-02T00:10:46.779Z,19.07
2016-02-02T00:11:46.862Z,19.14
2016-02-02T00:12:46.896Z,19.15
2016-02-02T00:13:46.945Z,19.11
2016-02-02T00:14:47.027Z,19.04
2016-02-02T00:15:46.905Z,19.09
2016-02-02T00:16:47.127Z,19.11
2016-02-02T00:17:47.177Z,19.08
2016-02-02T00:18:47.257Z,19.04
2016-02-02T00:19:47.291Z,19.07
2016-02-02T00:20:47.344Z,19.08
2016-02-02T00:21:47.394Z,19.12
2016-02-02T00:22:47.477Z,19.08
2016-02-02T00:23:47.511Z,19.09
2016-02-02T00:24:47.560Z,19.11
2016-02-02T00:25:47.611Z,19.12
2016-02-02T00:26:47.660Z,19.08
2016-02-02T00:27:47.726Z,19.09
2016-02-02T00:28:47.776Z,19.11
2016-02-02T00:29:47.842Z,19.08
2016-02-02T00:30:47.892Z,19.11
2016-02-02T00:31:47.941Z,19.09
2016-02-02T00:32:48.007Z,19.08
2016-02-02T00:33:48.058Z,19.08
2016-02-02T00:34:48.107Z,19.08
2016-02-02T00:35:48.172Z,19.07
2016-02-02T00:36:48.223Z,19.04
2016-02-02T00:37:48.289Z,19.08
2016-02-02T00:38:48.322Z,19
2016-02-02T00:39:48.371Z,18.95
2016-02-02T00:40:48.436Z,19.02
2016-02-02T00:41:48.519Z,18.96
2016-02-02T00:42:48.553Z,19.08
2016-02-02T00:43:48.602Z,19.08
2016-02-02T00:44:48.652Z,18.96
2016-02-02T00:45:48.718Z,18.99
2016-02-02T00:46:48.768Z,19
2016-02-02T00:47:48.832Z,19
2016-02-02T00:48:48.883Z,19.02
2016-02-02T00:49:48.933Z,18.99
2016-02-02T00:50:48.982Z,18.98
2016-02-02T00:51:49.047Z,19.04
2016-02-02T00:52:49.098Z,18.96
2016-02-02T00:53:49.148Z,18.92
2016-02-02T00:54:49.213Z,19.02
2016-02-02T00:55:49.122Z,18.9
2016-02-02T00:56:49.311Z,18.9
2016-02-02T00:57:49.362Z,18.84
2016-02-02T00:58:49.443Z,18.88
2016-02-02T00:59:49.483Z,18.89
2016-02-02T01:00:49.533Z,18.88
2016-02-02T01:01:49.614Z,18.83
2016-02-02T01:02:49.649Z,18.92
2016-02-02T01:03:49.698Z,18.83
2016-02-02T01:04:49.779Z,18.89
2016-02-02T01:05:49.813Z,18.86
2016-02-02T01:06:49.863Z,18.86
2016-02-02T01:07:49.945Z,18.84
2016-02-02T01:08:49.994Z,18.81
2016-02-02T01:09:50.045Z,18.89
2016-02-02T01:10:50.078Z,18.86
2016-02-02T01:11:50.143Z,18.8
2016-02-02T01:12:50.209Z,18.84
2016-02-02T01:13:50.242Z,18.89
2016-02-02T01:14:50.323Z,18.83
2016-02-02T01:15:50.373Z,18.8
2016-02-02T01:16:50.439Z,18.84
2016-02-02T01:17:50.472Z,18.78
2016-02-02T01:18:50.523Z,18.77
2016-02-02T01:19:50.572Z,18.78
2016-02-02T01:20:50.637Z,18.84
2016-02-02T01:21:50.687Z,18.81
2016-02-02T01:22:50.736Z,18.77
2016-02-02T01:23:50.801Z,18.83
2016-02-02T01:24:50.867Z,18.8
2016-02-02T01:25:50.917Z,18.86
2016-02-02T01:26:50.966Z,18.89
2016-02-02T01:27:51.031Z,18.78
2016-02-02T01:28:51.074Z,18.83
2016-02-02T01:29:51.124Z,18.81
2016-02-02T01:30:51.207Z,18.81
2016-02-02T01:31:51.240Z,18.83
2016-02-02T01:32:51.307Z,18.75
2016-02-02T01:33:51.340Z,18.81
2016-02-02T01:34:51.406Z,18.73
2016-02-02T01:35:51.472Z,18.81
2016-02-02T01:36:51.507Z,18.8
2016-02-02T01:37:51.572Z,18.81
2016-02-02T01:38:51.621Z,18.86
2016-02-02T01:39:51.672Z,18.71
2016-02-02T01:40:51.738Z,18.78
2016-02-02T01:41:51.788Z,18.77
2016-02-02T01:42:51.837Z,18.78
2016-02-02T01:43:51.902Z,18.74
2016-02-02T01:44:51.953Z,18.78
2016-02-02T01:45:52.003Z,18.73
2016-02-02T01:46:52.067Z,18.7
2016-02-02T01:47:52.116Z,18.75
2016-02-02T01:48:52.186Z,18.74
2016-02-02T01:49:52.219Z,18.68
2016-02-02T01:50:52.269Z,18.83
2016-02-02T01:51:52.336Z,18.75
2016-02-02T01:52:52.387Z,18.73
2016-02-02T01:53:52.467Z,18.8
2016-02-02T01:54:52.516Z,18.73
2016-02-02T01:55:52.553Z,18.75
2016-02-02T01:56:52.603Z,18.77
2016-02-02T01:57:52.669Z,18.75
2016-02-02T01:58:52.718Z,18.81
2016-02-02T01:59:52.768Z,18.77
2016-02-02T02:00:52.851Z,18.75
2016-02-02T02:01:52.884Z,18.73
2016-02-02T02:02:52.934Z,18.77
2016-02-02T02:03:52.999Z,18.73
2016-02-02T02:04:53.051Z,18.71
2016-02-02T02:05:53.100Z,18.66
2016-02-02T02:06:53.165Z,18.71
2016-02-02T02:07:53.215Z,18.68
2016-02-02T02:08:53.265Z,18.63
2016-02-02T02:09:53.315Z,18.68
2016-02-02T02:10:53.379Z,18.68
2016-02-02T02:11:53.429Z,18.73
2016-02-02T02:12:53.495Z,18.68
2016-02-02T02:13:53.545Z,18.74
2016-02-02T02:14:53.595Z,18.75
2016-02-02T02:15:53.660Z,18.71
2016-02-02T02:16:53.717Z,18.74
2016-02-02T02:17:53.767Z,18.73
2016-02-02T02:18:53.816Z,18.75
2016-02-02T02:19:53.880Z,18.7
2016-02-02T02:20:53.914Z,18.77
2016-02-02T02:21:53.981Z,18.7
2016-02-02T02:22:54.046Z,18.78
2016-02-02T02:23:54.095Z,18.77
2016-02-02T02:24:54.130Z,18.71
2016-02-02T02:25:54.199Z,18.81
2016-02-02T02:26:54.263Z,18.77
2016-02-02T02:27:54.298Z,18.74
2016-02-02T02:28:54.379Z,18.71
2016-02-02T02:29:54.415Z,18.74
2016-02-02T02:30:54.448Z,18.8
2016-02-02T02:31:54.514Z,18.65
2016-02-02T02:32:54.579Z,18.68
2016-02-02T02:33:54.645Z,18.74
2016-02-02T02:34:54.693Z,18.71
2016-02-02T02:35:54.743Z,18.75
2016-02-02T02:36:54.809Z,18.8
2016-02-02T02:37:54.859Z,18.75
2016-02-02T02:38:54.923Z,18.78
2016-02-02T02:39:54.972Z,18.75
2016-02-02T02:40:55.053Z,18.7
2016-02-02T02:41:55.103Z,18.68
2016-02-02T02:42:54.966Z,18.73
2016-02-02T02:43:55.172Z,18.7
2016-02-02T02:44:55.238Z,18.74
2016-02-02T02:45:55.303Z,18.7
2016-02-02T02:46:55.339Z,18.73
2016-02-02T02:47:55.404Z,18.8
2016-02-02T02:48:55.470Z,18.75
2016-02-02T02:49:55.504Z,18.7
2016-02-02T02:50:55.569Z,18.8
2016-02-02T02:51:55.619Z,18.77
2016-02-02T02:52:55.669Z,18.71
2016-02-02T02:53:55.719Z,18.68
2016-02-02T02:54:55.768Z,18.65
2016-02-02T02:55:55.833Z,18.71
2016-02-02T02:56:55.886Z,18.63
2016-02-02T02:57:55.936Z,18.66
2016-02-02T02:58:55.987Z,18.59
2016-02-02T02:59:56.055Z,18.65
2016-02-02T03:00:56.105Z,18.68
2016-02-02T03:01:56.171Z,18.6
2016-02-02T03:02:56.204Z,18.66
2016-02-02T03:03:56.286Z,18.66
2016-02-02T03:04:56.323Z,18.71
2016-02-02T03:05:56.374Z,18.71
2016-02-02T03:06:56.440Z,18.63
2016-02-02T03:07:56.490Z,18.56
2016-02-02T03:08:56.538Z,18.65
2016-02-02T03:09:56.604Z,18.59
2016-02-02T03:10:56.654Z,18.6
2016-02-02T03:11:56.720Z,18.52
2016-02-02T03:12:56.754Z,18.65
2016-02-02T03:13:56.806Z,18.63
2016-02-02T03:14:56.889Z,18.62
2016-02-02T03:15:56.923Z,18.62
2016-02-02T03:16:56.988Z,18.56
2016-02-02T03:17:57.038Z,18.62
2016-02-02T03:18:57.088Z,18.66
2016-02-02T03:19:57.138Z,18.65
2016-02-02T03:20:57.188Z,18.62
2016-02-02T03:21:57.236Z,18.63
2016-02-02T03:22:57.303Z,18.6
2016-02-02T03:23:57.371Z,18.6
2016-02-02T03:24:57.406Z,18.62
2016-02-02T03:25:57.471Z,18.63
2016-02-02T03:26:57.536Z,18.6
2016-02-02T03:27:57.572Z,18.71
2016-02-02T03:28:57.639Z,18.62
2016-02-02T03:29:57.690Z,18.62
2016-02-02T03:30:57.762Z,18.62
2016-02-02T03:31:57.796Z,18.62
2016-02-02T03:32:57.846Z,18.65
2016-02-02T03:33:57.897Z,18.66
2016-02-02T03:34:57.963Z,18.59
2016-02-02T03:35:58.012Z,18.62
2016-02-02T03:36:58.077Z,18.52
2016-02-02T03:37:58.128Z,18.53
2016-02-02T03:38:58.787Z,18.53
2016-02-02T03:39:58.227Z,18.52
2016-02-02T03:40:58.307Z,18.59
2016-02-02T03:41:58.388Z,18.55
2016-02-02T03:42:58.406Z,18.58
2016-02-02T03:43:58.459Z,18.56
2016-02-02T03:44:58.498Z,18.56
2016-02-02T03:45:58.520Z,18.56
2016-02-02T03:46:58.590Z,18.53
2016-02-02T03:47:58.615Z,18.56
2016-02-02T03:48:58.676Z,18.53
2016-02-02T03:49:58.708Z,18.53
2016-02-02T03:50:58.770Z,18.47
2016-02-02T03:51:58.831Z,18.5
2016-02-02T03:52:58.877Z,18.49
2016-02-02T03:53:58.925Z,18.5
2016-02-02T03:54:58.974Z,18.5
2016-02-02T03:55:59.053Z,18.52
2016-02-02T03:56:59.070Z,18.49
2016-02-02T03:57:59.150Z,18.56
2016-02-02T03:58:59.215Z,18.47
2016-02-02T03:59:59.249Z,18.53
2016-02-02T04:00:59.296Z,18.49
2016-02-02T04:01:59.361Z,18.5
2016-02-02T04:02:59.411Z,18.47
2016-02-02T04:03:59.464Z,18.52
2016-02-02T04:04:59.513Z,18.52
2016-02-02T04:05:59.579Z,18.52
2016-02-02T04:06:59.630Z,18.5
2016-02-02T04:07:59.522Z,18.52
2016-02-02T04:08:59.744Z,18.41
2016-02-02T04:09:59.793Z,18.49
2016-02-02T04:10:59.844Z,18.47
2016-02-02T04:11:59.894Z,18.41
2016-02-02T04:12:59.943Z,18.41
2016-02-02T04:14:00.008Z,18.5
2016-02-02T04:15:00.058Z,18.4
2016-02-02T04:16:00.109Z,18.5
2016-02-02T04:17:00.170Z,18.45
2016-02-02T04:18:00.220Z,18.49
2016-02-02T04:19:00.286Z,18.49
2016-02-02T04:20:00.352Z,18.41
2016-02-02T04:21:00.386Z,18.47
2016-02-02T04:22:00.434Z,18.55
2016-02-02T04:23:00.500Z,18.5
2016-02-02T04:24:00.551Z,18.43
2016-02-02T04:25:00.601Z,18.49
2016-02-02T04:26:00.665Z,18.52
2016-02-02T04:27:00.700Z,18.53
2016-02-02T04:28:00.766Z,18.47
2016-02-02T04:29:00.894Z,18.53
2016-02-02T04:30:00.866Z,18.52
2016-02-02T04:31:00.931Z,18.52
2016-02-02T04:32:00.982Z,18.38
2016-02-02T04:33:01.062Z,18.49
2016-02-02T04:34:01.096Z,18.52
2016-02-02T04:35:02.224Z,18.49
2016-02-02T04:36:02.804Z,18.5
2016-02-02T04:37:03.558Z,18.52
2016-02-02T04:38:02.827Z,18.5
2016-02-02T04:39:02.938Z,18.55
2016-02-02T04:40:03.051Z,18.52
2016-02-02T04:41:02.554Z,18.53
2016-02-02T04:42:03.886Z,18.5
2016-02-02T04:43:03.404Z,18.47
2016-02-02T04:44:02.907Z,18.47
2016-02-02T04:45:01.706Z,18.5
2016-02-02T04:46:01.755Z,18.53
2016-02-02T04:47:01.805Z,18.49
2016-02-02T04:48:02.948Z,18.52
2016-02-02T04:49:04.155Z,18.5
2016-02-02T04:50:03.376Z,18.49
2016-02-02T04:51:02.613Z,18.47
2016-02-02T04:52:03.444Z,18.44
2016-02-02T04:53:02.900Z,18.55
2016-02-02T04:54:02.185Z,18.45
2016-02-02T04:55:02.233Z,18.44
2016-02-02T04:56:02.299Z,18.44
2016-02-02T04:57:02.349Z,18.38
2016-02-02T04:58:02.415Z,18.43
2016-02-02T04:59:02.464Z,18.5
2016-02-02T05:00:02.514Z,18.49
2016-02-02T05:01:02.566Z,18.45
2016-02-02T05:02:02.630Z,18.41
2016-02-02T05:03:02.696Z,18.47
2016-02-02T05:04:02.729Z,18.52
2016-02-02T05:05:02.796Z,18.44
2016-02-02T05:06:02.844Z,18.52
2016-02-02T05:07:02.895Z,18.41
2016-02-02T05:08:02.805Z,18.49
2016-02-02T05:09:03.042Z,18.45
2016-02-02T05:10:03.044Z,18.49
2016-02-02T05:11:03.109Z,18.4
2016-02-02T05:12:03.178Z,18.44
2016-02-02T05:13:03.211Z,18.44
2016-02-02T05:14:03.281Z,18.49
2016-02-02T05:15:03.329Z,18.55
2016-02-02T05:16:03.379Z,18.45
2016-02-02T05:17:03.460Z,18.41
2016-02-02T05:18:03.495Z,18.41
2016-02-02T05:19:03.544Z,18.43
2016-02-02T05:20:03.592Z,18.34
2016-02-02T05:21:03.674Z,18.38
2016-02-02T05:22:03.724Z,18.35
2016-02-02T05:23:03.759Z,18.43
2016-02-02T05:24:03.807Z,18.35
2016-02-02T05:25:03.873Z,18.38
2016-02-02T05:26:03.954Z,18.37
2016-02-02T05:27:03.988Z,18.4
2016-02-02T05:28:04.054Z,18.41
2016-02-02T05:29:04.088Z,18.35
2016-02-02T05:30:04.144Z,18.33
2016-02-02T05:31:04.224Z,18.41
2016-02-02T05:32:04.258Z,18.4
2016-02-02T05:33:04.323Z,18.44
2016-02-02T05:34:04.405Z,18.43
2016-02-02T05:35:04.407Z,18.38
2016-02-02T05:36:04.472Z,18.43
2016-02-02T05:37:04.522Z,18.37
2016-02-02T05:38:04.588Z,18.4
2016-02-02T05:39:04.637Z,18.35
2016-02-02T05:40:04.684Z,18.35
2016-02-02T05:41:04.748Z,18.41
2016-02-02T05:42:04.814Z,18.41
2016-02-02T05:43:04.848Z,18.45
2016-02-02T05:44:04.902Z,18.43
2016-02-02T05:45:04.983Z,18.37
2016-02-02T05:46:05.032Z,18.34
2016-02-02T05:47:05.066Z,18.43
2016-02-02T05:48:05.147Z,18.34
2016-02-02T05:49:05.196Z,18.4
2016-02-02T05:50:05.231Z,18.4
2016-02-02T05:51:05.280Z,18.33
2016-02-02T05:52:05.345Z,18.37
2016-02-02T05:53:05.411Z,18.31
2016-02-02T05:54:05.446Z,18.4
2016-02-02T05:55:05.339Z,18.44
2016-02-02T05:56:05.561Z,18.4
2016-02-02T05:57:05.641Z,18.33
2016-02-02T05:58:05.659Z,18.35
2016-02-02T05:59:05.725Z,18.37
2016-02-02T06:00:05.789Z,18.37
2016-02-02T06:01:05.853Z,18.4
2016-02-02T06:02:05.903Z,18.28
2016-02-02T06:03:05.954Z,18.34
2016-02-02T06:04:06.018Z,18.31
2016-02-02T06:05:06.052Z,18.37
2016-02-02T06:06:06.101Z,18.35
2016-02-02T06:07:06.183Z,18.35
2016-02-02T06:08:06.232Z,18.31
2016-02-02T06:09:06.313Z,18.31
2016-02-02T06:10:06.316Z,18.33
2016-02-02T06:11:06.366Z,18.29
2016-02-02T06:12:06.463Z,18.29
2016-02-02T06:13:06.481Z,18.35
2016-02-02T06:14:06.530Z,18.29
2016-02-02T06:15:06.599Z,18.35
2016-02-02T06:16:06.710Z,18.29
2016-02-02T06:17:06.698Z,18.38
2016-02-02T06:18:06.763Z,18.33
2016-02-02T06:19:06.830Z,18.29
2016-02-02T06:20:06.865Z,18.41
2016-02-02T06:21:06.929Z,18.35
2016-02-02T06:22:06.995Z,18.35
2016-02-02T06:23:07.045Z,18.35
2016-02-02T06:24:07.079Z,18.31
2016-02-02T06:25:07.129Z,18.37
2016-02-02T06:26:07.260Z,18.34
2016-02-02T06:27:07.263Z,18.4
2016-02-02T06:28:07.297Z,18.37
2016-02-02T06:29:07.361Z,18.33
2016-02-02T06:30:07.427Z,18.33
2016-02-02T06:31:07.501Z,18.34
2016-02-02T06:32:07.536Z,18.4
2016-02-02T06:33:07.554Z,18.35
2016-02-02T06:34:07.620Z,18.37
2016-02-02T06:35:07.684Z,18.35
2016-02-02T06:36:07.751Z,18.34
2016-02-02T06:37:07.800Z,18.26
2016-02-02T06:38:07.835Z,18.38
2016-02-02T06:39:07.884Z,18.37
2016-02-02T06:40:07.949Z,18.33
2016-02-02T06:41:07.999Z,18.35
2016-02-02T06:42:08.063Z,18.35
2016-02-02T06:43:08.113Z,18.33
2016-02-02T06:44:08.179Z,18.33
2016-02-02T06:45:08.244Z,18.44
2016-02-02T06:46:08.278Z,18.34
2016-02-02T06:47:08.327Z,18.33
2016-02-02T06:48:08.376Z,18.38
2016-02-02T06:49:08.443Z,18.35
2016-02-02T06:50:08.507Z,18.31
2016-02-02T06:51:08.541Z,18.25
2016-02-02T06:52:08.607Z,18.26
2016-02-02T06:53:08.658Z,18.2
2016-02-02T06:54:08.722Z,18.16
2016-02-02T06:55:08.756Z,18.22
2016-02-02T06:56:08.821Z,18.19
2016-02-02T06:57:08.888Z,18.1
2016-02-02T06:58:08.938Z,18.13
2016-02-02T06:59:08.972Z,18.13
2016-02-02T07:00:09.037Z,18.15
2016-02-02T07:01:09.090Z,18.16
2016-02-02T07:02:09.139Z,18.18
2016-02-02T07:03:09.204Z,18.18
2016-02-02T07:04:09.253Z,18.16
2016-02-02T07:05:09.334Z,18.16
2016-02-02T07:06:09.353Z,18.15
2016-02-02T07:07:09.403Z,18.15
2016-02-02T07:08:09.468Z,18.16
2016-02-02T07:09:09.535Z,18.11
2016-02-02T07:10:09.568Z,18.18
2016-02-02T07:11:09.634Z,18.13
2016-02-02T07:12:09.698Z,18.05
2016-02-02T07:13:09.737Z,18.1
2016-02-02T07:14:09.803Z,18.04
2016-02-02T07:15:09.852Z,18.04
2016-02-02T07:16:09.901Z,17.92
2016-02-02T07:17:09.950Z,17.85
2016-02-02T07:18:10.018Z,17.79
2016-02-02T07:19:10.082Z,17.8
2016-02-02T07:20:10.148Z,17.83
2016-02-02T07:21:10.170Z,17.72
2016-02-02T07:22:10.221Z,17.85
2016-02-02T07:23:10.301Z,17.8
2016-02-02T07:24:10.351Z,17.85
2016-02-02T07:25:10.384Z,17.79
2016-02-02T07:26:10.480Z,17.78
2016-02-02T07:27:10.496Z,17.79
2016-02-02T07:28:10.546Z,17.82
2016-02-02T07:29:10.612Z,17.78
2016-02-02T07:30:10.661Z,17.72
2016-02-02T07:31:10.749Z,17.78
2016-02-02T07:32:10.922Z,17.79
2016-02-02T07:33:14.073Z,17.8
2016-02-02T07:34:20.609Z,17.79
2016-02-02T07:35:11.384Z,17.79
2016-02-02T07:36:10.965Z,17.83
2016-02-02T07:37:11.123Z,17.8
2016-02-02T07:38:11.080Z,17.79
2016-02-02T07:39:11.129Z,17.85
2016-02-02T07:40:11.248Z,17.78
2016-02-02T07:41:11.251Z,17.71
2016-02-02T07:42:11.316Z,17.83
2016-02-02T07:43:11.366Z,17.78
2016-02-02T07:44:11.416Z,17.78
2016-02-02T07:45:11.465Z,17.8
2016-02-02T07:46:11.530Z,17.71
2016-02-02T07:47:11.564Z,17.92
2016-02-02T07:48:11.615Z,17.8
2016-02-02T07:49:11.681Z,17.83
2016-02-02T07:50:11.730Z,17.87
2016-02-02T07:51:11.784Z,17.8
2016-02-02T07:52:11.832Z,17.8
2016-02-02T07:53:11.898Z,17.76
2016-02-02T07:54:11.962Z,17.82
2016-02-02T07:55:12.002Z,17.74
2016-02-02T07:56:12.066Z,17.76
2016-02-02T07:57:12.100Z,17.79
2016-02-02T07:58:12.166Z,17.85
2016-02-02T07:59:12.217Z,17.78
2016-02-02T08:00:12.267Z,17.82
2016-02-02T08:01:12.332Z,17.76
2016-02-02T08:02:12.398Z,17.79
2016-02-02T08:03:12.432Z,17.78
2016-02-02T08:04:12.199Z,17.76
2016-02-02T08:05:12.700Z,17.82
2016-02-02T08:06:12.593Z,17.74
2016-02-02T08:07:12.646Z,17.8
2016-02-02T08:08:12.726Z,17.78
2016-02-02T08:09:12.775Z,17.83
2016-02-02T08:10:12.809Z,17.82
2016-02-02T08:11:12.859Z,17.78
2016-02-02T08:12:12.925Z,17.74
2016-02-02T08:13:12.973Z,17.83
2016-02-02T08:14:13.015Z,17.8
2016-02-02T08:15:13.085Z,17.85
2016-02-02T08:16:13.120Z,17.78
2016-02-02T08:17:13.170Z,17.83
2016-02-02T08:18:13.235Z,17.8
2016-02-02T08:19:13.300Z,17.82
2016-02-02T08:20:13.334Z,17.74
2016-02-02T08:21:13.387Z,17.74
2016-02-02T08:22:13.453Z,17.79
2016-02-02T08:23:13.501Z,17.72
2016-02-02T08:24:13.567Z,17.82
2016-02-02T08:25:13.601Z,17.76
2016-02-02T08:26:13.682Z,17.71
2016-02-02T08:27:13.717Z,17.78
2016-02-02T08:28:13.768Z,17.76
2016-02-02T08:29:13.817Z,17.76
2016-02-02T08:30:13.902Z,17.74
2016-02-02T08:31:13.936Z,17.79
2016-02-02T08:32:14.001Z,17.76
2016-02-02T08:33:14.035Z,17.65
2016-02-02T08:34:14.101Z,17.71
2016-02-02T08:35:14.151Z,17.79
2016-02-02T08:36:14.215Z,17.7
2016-02-02T08:37:14.265Z,17.59
2016-02-02T08:38:14.330Z,17.74
2016-02-02T08:39:14.365Z,17.64
2016-02-02T08:40:14.429Z,17.59
2016-02-02T08:41:14.479Z,17.74
2016-02-02T08:42:14.514Z,17.64
2016-02-02T08:43:14.594Z,17.6
2016-02-02T08:44:14.644Z,17.65
2016-02-02T08:45:14.694Z,17.67
2016-02-02T08:46:14.727Z,17.7
2016-02-02T08:47:14.640Z,17.7
2016-02-02T08:48:14.846Z,17.7
2016-02-02T08:49:14.895Z,17.65
2016-02-02T08:50:14.945Z,17.54
2016-02-02T08:51:15.028Z,17.68
2016-02-02T08:52:15.062Z,17.67
2016-02-02T08:53:15.111Z,17.6
2016-02-02T08:54:15.191Z,17.63
2016-02-02T08:55:15.242Z,17.7
2016-02-02T08:56:15.279Z,17.64
2016-02-02T08:57:15.329Z,17.57
2016-02-02T08:58:15.384Z,17.65
2016-02-02T08:59:15.434Z,17.63
2016-02-02T09:00:15.484Z,17.7
2016-02-02T09:01:15.550Z,17.54
2016-02-02T09:02:15.614Z,17.64
2016-02-02T09:03:15.649Z,17.64
2016-02-02T09:04:15.714Z,17.54
2016-02-02T09:05:15.765Z,17.64
2016-02-02T09:06:15.829Z,17.63
2016-02-02T09:07:15.864Z,17.63
2016-02-02T09:08:15.932Z,17.67
2016-02-02T09:09:15.966Z,17.68
2016-02-02T09:10:16.047Z,17.64
2016-02-02T09:11:16.066Z,17.63
2016-02-02T09:12:16.146Z,17.6
2016-02-02T09:13:16.182Z,17.52
2016-02-02T09:14:16.249Z,17.59
2016-02-02T09:15:16.298Z,17.64
2016-02-02T09:16:16.332Z,17.63
2016-02-02T09:17:16.414Z,17.59
2016-02-02T09:18:16.463Z,17.63
2016-02-02T09:19:16.528Z,17.56
2016-02-02T09:20:16.553Z,17.65
2016-02-02T09:21:16.617Z,17.6
2016-02-02T09:22:16.683Z,17.51
2016-02-02T09:23:16.716Z,17.51
2016-02-02T09:24:16.783Z,17.51
2016-02-02T09:25:16.863Z,17.52
2016-02-02T09:26:16.881Z,17.45
2016-02-02T09:27:16.950Z,17.54
2016-02-02T09:28:16.999Z,17.48
2016-02-02T09:29:17.033Z,17.64
2016-02-02T09:30:17.130Z,17.45
2016-02-02T09:31:17.147Z,17.51
2016-02-02T09:32:17.213Z,17.51
2016-02-02T09:33:17.277Z,17.51
2016-02-02T09:34:17.313Z,17.52
2016-02-02T09:35:17.362Z,17.48
2016-02-02T09:36:17.428Z,17.48
2016-02-02T09:37:17.478Z,17.54
2016-02-02T09:38:17.528Z,17.51
2016-02-02T09:39:17.577Z,17.48
2016-02-02T09:40:17.642Z,17.49
2016-02-02T09:41:17.692Z,17.54
2016-02-02T09:42:17.726Z,17.44
2016-02-02T09:43:17.792Z,17.44
2016-02-02T09:44:17.856Z,17.56
2016-02-02T09:45:17.922Z,17.51
2016-02-02T09:46:17.940Z,17.48
2016-02-02T09:47:18.005Z,17.45
2016-02-02T09:48:18.070Z,17.51
2016-02-02T09:49:18.103Z,17.44
2016-02-02T09:50:18.172Z,17.49
2016-02-02T09:51:18.221Z,17.39
2016-02-02T09:52:18.286Z,17.44
2016-02-02T09:53:18.335Z,17.45
2016-02-02T09:54:18.385Z,17.42
2016-02-02T09:55:18.435Z,17.45
2016-02-02T09:56:18.505Z,17.39
2016-02-02T09:57:18.539Z,17.39
2016-02-02T09:58:18.587Z,17.41
2016-02-02T09:59:18.670Z,17.44
2016-02-02T10:00:18.704Z,17.51
2016-02-02T10:01:18.753Z,17.44
2016-02-02T10:02:18.822Z,17.41
2016-02-02T10:03:18.888Z,17.46
2016-02-02T10:04:18.906Z,17.46
2016-02-02T10:05:18.972Z,17.39
2016-02-02T10:06:19.067Z,17.46
2016-02-02T10:07:19.070Z,17.45
2016-02-02T10:08:18.839Z,17.42
2016-02-02T10:09:19.187Z,17.41
2016-02-02T10:10:19.251Z,17.38
2016-02-02T10:11:19.317Z,17.48
2016-02-02T10:12:19.334Z,17.42
2016-02-02T10:13:19.401Z,17.39
2016-02-02T10:14:19.465Z,17.41
2016-02-02T10:15:19.514Z,17.52
2016-02-02T10:16:19.564Z,17.46
2016-02-02T10:17:19.614Z,17.45
2016-02-02T10:18:19.664Z,17.44
2016-02-02T10:19:19.728Z,17.41
2016-02-02T10:20:19.763Z,17.44
2016-02-02T10:21:19.843Z,17.48
2016-02-02T10:22:19.877Z,17.44
2016-02-02T10:23:19.943Z,17.51
2016-02-02T10:24:20.039Z,17.45
2016-02-02T10:25:20.041Z,17.45
2016-02-02T10:26:20.111Z,17.42
2016-02-02T10:27:20.145Z,17.39
2016-02-02T10:28:20.210Z,17.44
2016-02-02T10:29:20.275Z,17.44
2016-02-02T10:30:20.309Z,17.41
2016-02-02T10:31:20.375Z,17.44
2016-02-02T10:32:20.428Z,17.45
2016-02-02T10:33:20.476Z,17.44
2016-02-02T10:34:20.541Z,17.41
2016-02-02T10:35:20.571Z,17.46
2016-02-02T10:36:20.637Z,17.44
2016-02-02T10:37:20.687Z,17.41
2016-02-02T10:38:20.735Z,17.52
2016-02-02T10:39:20.803Z,17.44
2016-02-02T10:40:20.867Z,17.39
2016-02-02T10:41:20.902Z,17.41
2016-02-02T10:42:20.966Z,17.48
2016-02-02T10:43:21.000Z,17.42
2016-02-02T10:44:21.066Z,17.41
2016-02-02T10:45:21.116Z,17.45
2016-02-02T10:46:21.181Z,17.51
2016-02-02T10:47:21.230Z,17.42
2016-02-02T10:48:21.296Z,17.41
2016-02-02T10:49:21.315Z,17.39
2016-02-02T10:50:21.380Z,17.39
2016-02-02T10:51:21.444Z,17.45
2016-02-02T10:52:21.479Z,17.36
2016-02-02T10:53:21.528Z,17.38
2016-02-02T10:54:21.594Z,17.33
2016-02-02T10:55:21.658Z,17.46
2016-02-02T10:56:21.708Z,17.41
2016-02-02T10:57:21.762Z,17.33
2016-02-02T10:58:21.814Z,17.45
2016-02-02T10:59:21.878Z,17.45
2016-02-02T11:00:21.913Z,17.44
2016-02-02T11:01:21.963Z,17.34
2016-02-02T11:02:22.027Z,17.31
2016-02-02T11:03:22.077Z,17.44
2016-02-02T11:04:22.127Z,17.39
2016-02-02T11:05:22.176Z,17.33
2016-02-02T11:06:22.241Z,17.42
2016-02-02T11:07:22.290Z,17.48
2016-02-02T11:08:22.341Z,17.3
2016-02-02T11:09:22.405Z,17.41
2016-02-02T11:10:22.445Z,17.42
2016-02-02T11:11:22.509Z,17.33
2016-02-02T11:12:22.559Z,17.45
2016-02-02T11:13:22.624Z,17.48
2016-02-02T11:14:22.659Z,17.42
2016-02-02T11:15:22.724Z,17.45
2016-02-02T11:16:22.757Z,17.44
2016-02-02T11:17:22.809Z,17.42
2016-02-02T11:18:22.905Z,17.33
2016-02-02T11:19:22.939Z,17.33
2016-02-02T11:20:22.973Z,17.41
2016-02-02T11:21:23.038Z,17.39
2016-02-02T11:22:23.106Z,17.34
2016-02-02T11:23:23.141Z,17.42
2016-02-02T11:24:23.190Z,17.41
2016-02-02T11:25:23.255Z,17.45
2016-02-02T11:26:23.306Z,17.42
2016-02-02T11:27:23.356Z,17.48
2016-02-02T11:28:23.412Z,17.44
2016-02-02T11:29:23.476Z,17.42
2016-02-02T11:30:23.543Z,17.41
2016-02-02T11:31:23.576Z,17.42
2016-02-02T11:32:23.626Z,17.41
2016-02-02T11:33:23.708Z,17.33
2016-02-02T11:34:23.758Z,17.38
2016-02-02T11:35:23.791Z,17.44
2016-02-02T11:36:23.857Z,17.36
2016-02-02T11:37:23.906Z,17.38
2016-02-02T11:38:23.955Z,17.36
2016-02-02T11:39:24.036Z,17.42
2016-02-02T11:40:24.104Z,17.36
2016-02-02T11:41:24.107Z,17.39
2016-02-02T11:42:24.172Z,17.38
2016-02-02T11:43:24.221Z,17.39
2016-02-02T11:44:24.287Z,17.42
2016-02-02T11:45:24.356Z,17.41
2016-02-02T11:46:24.374Z,17.36
2016-02-02T11:47:24.440Z,17.31
2016-02-02T11:48:24.474Z,17.42
2016-02-02T11:49:24.540Z,17.38
2016-02-02T11:50:24.604Z,17.38
2016-02-02T11:51:24.639Z,17.44
2016-02-02T11:52:24.703Z,17.41
2016-02-02T11:53:24.754Z,17.45
2016-02-02T11:54:24.803Z,17.44
2016-02-02T11:55:24.867Z,17.42
2016-02-02T11:56:24.902Z,17.34
2016-02-02T11:57:24.967Z,17.42
2016-02-02T11:58:25.019Z,17.42
2016-02-02T11:59:25.070Z,17.39
2016-02-02T12:00:25.119Z,17.42
2016-02-02T12:01:25.184Z,17.33
2016-02-02T12:02:25.249Z,17.42
2016-02-02T12:03:25.283Z,17.41
2016-02-02T12:04:25.337Z,17.46
2016-02-02T12:05:25.401Z,17.39
2016-02-02T12:06:25.452Z,17.45
2016-02-02T12:07:25.502Z,17.41
2016-02-02T12:08:25.552Z,17.41
2016-02-02T12:09:25.601Z,17.42
2016-02-02T12:10:25.650Z,17.44
2016-02-02T12:11:25.701Z,17.45
2016-02-02T12:12:25.797Z,17.44
2016-02-02T12:13:25.816Z,17.42
2016-02-02T12:14:25.880Z,17.46
2016-02-02T12:15:25.930Z,17.41
2016-02-02T12:16:25.981Z,17.39
2016-02-02T12:17:26.045Z,17.34
2016-02-02T12:18:26.080Z,17.42
2016-02-02T12:19:26.129Z,17.39
2016-02-02T12:20:26.193Z,17.45
2016-02-02T12:21:26.244Z,17.36
2016-02-02T12:22:26.308Z,17.38
2016-02-02T12:23:26.359Z,17.36
2016-02-02T12:24:26.408Z,17.38
2016-02-02T12:25:26.474Z,17.38
2016-02-02T12:26:26.524Z,17.38
2016-02-02T12:27:26.573Z,17.39
2016-02-02T12:28:26.622Z,17.38
2016-02-02T12:29:26.684Z,17.38
2016-02-02T12:30:26.733Z,17.36
2016-02-02T12:31:26.783Z,17.3
2016-02-02T12:32:26.847Z,17.38
2016-02-02T12:33:26.896Z,17.33
2016-02-02T12:34:26.947Z,17.33
2016-02-02T12:35:26.997Z,17.39
2016-02-02T12:36:27.061Z,17.34
2016-02-02T12:37:27.110Z,17.31
2016-02-02T12:38:27.160Z,17.31
2016-02-02T12:39:27.226Z,17.36
2016-02-02T12:40:27.275Z,17.31
2016-02-02T12:41:27.310Z,17.39
2016-02-02T12:42:27.392Z,17.39
2016-02-02T12:43:27.425Z,17.44
2016-02-02T12:44:27.476Z,17.42
2016-02-02T12:45:27.540Z,17.46
2016-02-02T12:46:27.590Z,17.42
2016-02-02T12:47:27.639Z,17.48
2016-02-02T12:48:27.720Z,17.45
2016-02-02T12:49:27.748Z,17.49
2016-02-02T12:50:27.785Z,17.52
2016-02-02T12:51:27.825Z,17.48
2016-02-02T12:52:27.880Z,17.63
2016-02-02T12:53:27.935Z,17.59
2016-02-02T12:54:27.948Z,17.64
2016-02-02T12:55:28.008Z,17.63
2016-02-02T12:56:28.054Z,17.65